createdAt,value
2019-01-25T00:00:23.055Z,100667.00
2019-01-25T00:02:53.549Z,100668.00
2019-01-25T00:05:24.058Z,100661.00
2019-01-25T00:07:55.961Z,100665.00
2019-01-25T00:10:26.897Z,100662.00
2019-01-25T00:12:57.483Z,100661.00
2019-01-25T00:15:28.240Z,100669.00
2019-01-25T00:17:59.105Z,100664.00
2019-01-25T00:20:30.055Z,100670.00
2019-01-25T00:23:00.595Z,100656.00
2019-01-25T00:25:31.389Z,100668.00
2019-01-25T00:28:02.104Z,100652.00
2019-01-25T00:30:32.654Z,100657.00
2019-01-25T00:33:03.511Z,100651.00
2019-01-25T00:35:34.149Z,100649.00
2019-01-25T00:38:04.665Z,100645.00
2019-01-25T00:40:35.407Z,100657.00
2019-01-25T00:43:05.912Z,100656.00
2019-01-25T00:45:36.697Z,100665.00
2019-01-25T00:48:07.259Z,100651.00
2019-01-25T00:50:37.681Z,100644.00
2019-01-25T00:53:08.348Z,100654.00
2019-01-25T00:55:39.101Z,100649.00
2019-01-25T00:58:09.680Z,100634.00
2019-01-25T01:00:40.040Z,100636.00
2019-01-25T01:03:14.103Z,100637.00
2019-01-25T01:05:44.550Z,100655.00
2019-01-25T01:08:15.933Z,100642.00
2019-01-25T01:11:05.404Z,100645.00
2019-01-25T01:13:36.156Z,100651.00
2019-01-25T01:16:06.649Z,100657.00
2019-01-25T01:18:37.633Z,100648.00
2019-01-25T01:21:08.655Z,100652.00
2019-01-25T01:23:39.042Z,100652.00
2019-01-25T01:26:09.403Z,100658.00
2019-01-25T01:28:39.834Z,100663.00
2019-01-25T01:31:10.246Z,100669.00
2019-01-25T01:33:40.623Z,100663.00
2019-01-25T01:36:10.963Z,100664.00
2019-01-25T01:38:41.597Z,100658.00
2019-01-25T01:41:11.986Z,100665.00
2019-01-25T01:43:42.403Z,100655.00
2019-01-25T01:46:12.777Z,100665.00
2019-01-25T01:48:43.473Z,100660.00
2019-01-25T01:51:13.859Z,100656.00
2019-01-25T01:53:44.240Z,100663.00
2019-01-25T01:56:14.868Z,100669.00
2019-01-25T01:58:45.601Z,100662.00
2019-01-25T02:01:15.943Z,100671.00
2019-01-25T02:03:46.305Z,100663.00
2019-01-25T02:06:16.673Z,100661.00
2019-01-25T02:08:47.098Z,100670.00
2019-01-25T02:11:17.835Z,100674.00
2019-01-25T02:13:48.577Z,100659.00
2019-01-25T02:16:38.053Z,100654.00
2019-01-25T02:19:16.658Z,100653.00
2019-01-25T02:21:47.040Z,100653.00
2019-01-25T02:24:17.717Z,100652.00
2019-01-25T02:26:48.344Z,100666.00
2019-01-25T02:29:18.723Z,100665.00
2019-01-25T02:31:48.967Z,100657.00
2019-01-25T02:34:19.334Z,100663.00
2019-01-25T02:36:49.756Z,100665.00
2019-01-25T02:39:20.375Z,100670.00
2019-01-25T02:41:50.776Z,100655.00
2019-01-25T02:44:21.167Z,100656.00
2019-01-25T02:46:51.573Z,100656.00
2019-01-25T02:49:21.928Z,100643.00
2019-01-25T02:51:52.245Z,100649.00
2019-01-25T02:54:22.712Z,100640.00
2019-01-25T02:56:53.048Z,100638.00
2019-01-25T02:59:23.397Z,100635.00
2019-01-25T03:01:54.428Z,100642.00
2019-01-25T03:04:25.302Z,100639.00
2019-01-25T03:06:55.986Z,100632.00
2019-01-25T03:09:26.367Z,100629.00
2019-01-25T03:11:57.042Z,100624.00
2019-01-25T03:14:27.421Z,100636.00
2019-01-25T03:16:57.830Z,100632.00
2019-01-25T03:19:28.270Z,100633.00
2019-01-25T03:21:58.673Z,100629.00
2019-01-25T03:24:29.089Z,100634.00
2019-01-25T03:26:59.512Z,100631.00
2019-01-25T03:29:29.807Z,100618.00
2019-01-25T03:32:00.453Z,100639.00
2019-01-25T03:34:49.930Z,100635.00
2019-01-25T03:37:22.529Z,100626.00
2019-01-25T03:39:53.245Z,100632.00
2019-01-25T03:42:23.574Z,100625.00
2019-01-25T03:44:53.922Z,100640.00
2019-01-25T03:47:24.705Z,100630.00
2019-01-25T03:49:55.093Z,100635.00
2019-01-25T03:52:25.801Z,100635.00
2019-01-25T03:54:56.216Z,100629.00
2019-01-25T03:57:26.557Z,100643.00
2019-01-25T03:59:56.984Z,100645.00
2019-01-25T04:02:27.638Z,100636.00
2019-01-25T04:04:58.007Z,100625.00
2019-01-25T04:07:30.449Z,100633.00
2019-01-25T04:10:00.788Z,100628.00
2019-01-25T04:12:31.411Z,100624.00
2019-01-25T04:15:01.851Z,100632.00
2019-01-25T04:17:33.740Z,100624.00
2019-01-25T04:20:04.950Z,100617.00
2019-01-25T04:22:35.564Z,100624.00
2019-01-25T04:25:07.901Z,100629.00
2019-01-25T04:27:38.639Z,100624.00
2019-01-25T04:30:13.763Z,100627.00
2019-01-25T04:32:44.444Z,100630.00
2019-01-25T04:35:14.861Z,100625.00
2019-01-25T04:37:45.473Z,100641.00
2019-01-25T04:40:16.700Z,100636.00
2019-01-25T04:42:47.480Z,100635.00
2019-01-25T04:45:19.816Z,100645.00
2019-01-25T04:47:50.196Z,100641.00
2019-01-25T04:50:23.054Z,100649.00
2019-01-25T04:52:54.349Z,100656.00
2019-01-25T04:55:33.466Z,100646.00
2019-01-25T04:58:18.517Z,100641.00
2019-01-25T05:00:49.179Z,100659.00
2019-01-25T05:03:19.597Z,100646.00
2019-01-25T05:05:49.966Z,100651.00
2019-01-25T05:08:24.424Z,100647.00
2019-01-25T05:10:54.894Z,100655.00
2019-01-25T05:13:25.863Z,100655.00
2019-01-25T05:15:56.558Z,100649.00
2019-01-25T05:18:26.963Z,100652.00
2019-01-25T05:20:57.591Z,100657.00
2019-01-25T05:23:27.944Z,100664.00
2019-01-25T05:25:58.945Z,100661.00
2019-01-25T05:28:29.569Z,100656.00
2019-01-25T05:31:09.637Z,100658.00
2019-01-25T05:33:40.035Z,100653.00
2019-01-25T05:36:10.344Z,100652.00
2019-01-25T05:38:47.182Z,100656.00
2019-01-25T05:41:17.844Z,100668.00
2019-01-25T05:43:48.245Z,100655.00
2019-01-25T05:46:19.176Z,100657.00
2019-01-25T05:49:08.641Z,100662.00
2019-01-25T05:51:39.423Z,100657.00
2019-01-25T05:54:09.752Z,100652.00
2019-01-25T05:56:44.449Z,100652.00
2019-01-25T05:59:33.862Z,100659.00
2019-01-25T06:02:04.378Z,100655.00
2019-01-25T06:04:37.306Z,100659.00
2019-01-25T06:07:07.641Z,100656.00
2019-01-25T06:09:38.009Z,100655.00
2019-01-25T06:12:08.355Z,100650.00
2019-01-25T06:14:39.164Z,100652.00
2019-01-25T06:17:09.575Z,100664.00
2019-01-25T06:19:40.097Z,100653.00
2019-01-25T06:22:10.419Z,100662.00
2019-01-25T06:24:43.075Z,100672.00
2019-01-25T06:27:13.428Z,100681.00
2019-01-25T06:29:45.975Z,100673.00
2019-01-25T06:32:22.754Z,100677.00
2019-01-25T06:34:54.446Z,100669.00
2019-01-25T06:37:24.808Z,100666.00
2019-01-25T06:40:09.773Z,100678.00
2019-01-25T06:42:40.151Z,100671.00
2019-01-25T06:45:10.768Z,100689.00
2019-01-25T06:47:41.097Z,100675.00
2019-01-25T06:50:11.616Z,100673.00
2019-01-25T06:52:42.280Z,100666.00
2019-01-25T06:55:12.772Z,100680.00
2019-01-25T06:57:50.558Z,100686.00
2019-01-25T07:00:23.982Z,100666.00
2019-01-25T07:02:54.325Z,100670.00
2019-01-25T07:05:24.702Z,100659.00
2019-01-25T07:07:55.086Z,100667.00
2019-01-25T07:10:25.765Z,100655.00
2019-01-25T07:12:57.027Z,100655.00
2019-01-25T07:15:27.525Z,100663.00
2019-01-25T07:17:58.148Z,100664.00
2019-01-25T07:20:28.634Z,100656.00
2019-01-25T07:22:59.152Z,100667.00
2019-01-25T07:25:29.449Z,100673.00
2019-01-25T07:27:59.873Z,100667.00
2019-01-25T07:30:30.529Z,100676.00
2019-01-25T07:33:00.868Z,100680.00
2019-01-25T07:35:39.315Z,100674.00
2019-01-25T07:38:09.728Z,100695.00
2019-01-25T07:40:40.651Z,100696.00
2019-01-25T07:43:10.982Z,100700.00
2019-01-25T07:45:54.758Z,100703.00
2019-01-25T07:48:25.066Z,100688.00
2019-01-25T07:50:55.731Z,100699.00
2019-01-25T07:53:26.390Z,100683.00
2019-01-25T07:55:56.674Z,100670.00
2019-01-25T07:58:27.341Z,100668.00
2019-01-25T08:00:58.010Z,100666.00
2019-01-25T08:03:28.359Z,100657.00
2019-01-25T08:05:58.769Z,100667.00
2019-01-25T08:08:29.090Z,100665.00
2019-01-25T08:11:00.069Z,100668.00
2019-01-25T08:13:35.801Z,100684.00
2019-01-25T08:16:06.218Z,100680.00
2019-01-25T08:18:37.189Z,100682.00
2019-01-25T08:21:09.501Z,100673.00
2019-01-25T08:23:39.849Z,100674.00
2019-01-25T08:26:10.643Z,100665.00
2019-01-25T08:28:59.240Z,100655.00
2019-01-25T08:31:29.594Z,100662.00
2019-01-25T08:34:00.600Z,100676.00
2019-01-25T08:36:50.294Z,100676.00
2019-01-25T08:39:21.289Z,100671.00
2019-01-25T08:41:51.641Z,100673.00
2019-01-25T08:44:22.000Z,100668.00
2019-01-25T08:46:52.689Z,100675.00
2019-01-25T08:49:32.379Z,100676.00
2019-01-25T08:52:02.738Z,100674.00
2019-01-25T08:54:33.637Z,100689.00
2019-01-25T08:57:04.145Z,100674.00
2019-01-25T08:59:34.747Z,100690.00
2019-01-25T09:02:05.452Z,100694.00
2019-01-25T09:04:35.869Z,100702.00
2019-01-25T09:07:06.164Z,100700.00
2019-01-25T09:09:36.827Z,100700.00
2019-01-25T09:12:07.420Z,100692.00
2019-01-25T09:14:38.108Z,100686.00
2019-01-25T09:17:08.509Z,100683.00
2019-01-25T09:19:38.848Z,100689.00
2019-01-25T09:22:09.630Z,100698.00
2019-01-25T09:24:40.038Z,100699.00
2019-01-25T09:27:18.859Z,100694.00
2019-01-25T09:29:49.228Z,100707.00
2019-01-25T09:32:19.603Z,100705.00
2019-01-25T09:34:50.034Z,100691.00
2019-01-25T09:37:20.793Z,100689.00
2019-01-25T09:39:51.504Z,100695.00
2019-01-25T09:42:21.945Z,100680.00
2019-01-25T09:44:52.612Z,100683.00
2019-01-25T09:47:23.050Z,100662.00
2019-01-25T09:49:53.427Z,100663.00
2019-01-25T09:52:23.814Z,100662.00
2019-01-25T09:54:54.596Z,100665.00
2019-01-25T09:57:25.471Z,100669.00
2019-01-25T09:59:55.882Z,100665.00
2019-01-25T10:02:26.347Z,100664.00
2019-01-25T10:04:56.682Z,100666.00
2019-01-25T10:07:27.710Z,100672.00
2019-01-25T10:09:58.075Z,100664.00
2019-01-25T10:12:28.441Z,100663.00
2019-01-25T10:14:58.877Z,100666.00
2019-01-25T10:17:32.422Z,100675.00
2019-01-25T10:20:05.676Z,100663.00
2019-01-25T10:22:36.059Z,100660.00
2019-01-25T10:25:09.911Z,100656.00
2019-01-25T10:27:40.436Z,100657.00
2019-01-25T10:30:15.731Z,100654.00
2019-01-25T10:32:46.111Z,100650.00
2019-01-25T10:35:16.453Z,100647.00
2019-01-25T10:37:57.045Z,100648.00
2019-01-25T10:40:27.772Z,100652.00
2019-01-25T10:42:58.092Z,100640.00
2019-01-25T10:45:35.634Z,100655.00
2019-01-25T10:48:07.177Z,100648.00
2019-01-25T10:50:37.982Z,100655.00
2019-01-25T10:53:09.661Z,100646.00
2019-01-25T10:55:40.153Z,100646.00
2019-01-25T10:58:10.737Z,100648.00
2019-01-25T11:00:41.127Z,100638.00
2019-01-25T11:03:11.767Z,100644.00
2019-01-25T11:05:42.612Z,100641.00
2019-01-25T11:08:16.081Z,100625.00
2019-01-25T11:10:46.511Z,100623.00
2019-01-25T11:13:16.861Z,100623.00
2019-01-25T11:15:47.216Z,100623.00
2019-01-25T11:18:17.920Z,100619.00
2019-01-25T11:20:48.632Z,100622.00
2019-01-25T11:23:19.010Z,100619.00
2019-01-25T11:25:49.706Z,100613.00
2019-01-25T11:28:24.158Z,100619.00
2019-01-25T11:30:55.176Z,100620.00
2019-01-25T11:33:25.569Z,100613.00
2019-01-25T11:35:55.959Z,100621.00
2019-01-25T11:38:28.425Z,100626.00
2019-01-25T11:40:59.162Z,100613.00
2019-01-25T11:43:29.529Z,100621.00
2019-01-25T11:46:11.016Z,100610.00
2019-01-25T11:48:41.377Z,100608.00
2019-01-25T11:51:12.124Z,100603.00
2019-01-25T11:53:50.400Z,100611.00
2019-01-25T11:56:20.760Z,100603.00
2019-01-25T11:59:10.236Z,100596.00
2019-01-25T12:01:40.576Z,100590.00
2019-01-25T12:04:30.418Z,100582.00
2019-01-25T12:07:01.161Z,100574.00
2019-01-25T12:09:31.554Z,100569.00
2019-01-25T12:12:01.920Z,100575.00
2019-01-25T12:14:32.492Z,100576.00
2019-01-25T12:17:02.901Z,100574.00
2019-01-25T12:19:33.215Z,100575.00
2019-01-25T12:22:03.593Z,100575.00
2019-01-25T12:24:34.216Z,100580.00
2019-01-25T12:27:04.638Z,100569.00
2019-01-25T12:29:35.243Z,100570.00
2019-01-25T12:32:05.594Z,100566.00
2019-01-25T12:34:36.447Z,100560.00
2019-01-25T12:37:06.830Z,100556.00
2019-01-25T12:39:37.234Z,100531.00
2019-01-25T12:42:07.652Z,100534.00
2019-01-25T12:44:38.045Z,100549.00
2019-01-25T12:47:08.655Z,100536.00
2019-01-25T12:49:42.376Z,100529.00
2019-01-25T12:52:12.799Z,100525.00
2019-01-25T12:54:43.289Z,100518.00
2019-01-25T12:57:13.693Z,100521.00
2019-01-25T12:59:44.076Z,100525.00
2019-01-25T13:02:14.749Z,100527.00
2019-01-25T13:04:46.223Z,100524.00
2019-01-25T13:07:16.542Z,100516.00
2019-01-25T13:09:47.193Z,100522.00
2019-01-25T13:12:25.081Z,100508.00
2019-01-25T13:14:53.018Z,100491.00
2019-01-25T13:17:23.333Z,100501.00
2019-01-25T13:19:53.693Z,100505.00
2019-01-25T13:22:24.041Z,100514.00
2019-01-25T13:24:57.224Z,100496.00
2019-01-25T13:27:27.551Z,100484.00
2019-01-25T13:29:57.885Z,100482.00
2019-01-25T13:32:28.288Z,100477.00
2019-01-25T13:34:58.885Z,100479.00
2019-01-25T13:37:31.499Z,100476.00
2019-01-25T13:40:01.756Z,100476.00
2019-01-25T13:42:32.385Z,100475.00
2019-01-25T13:45:02.792Z,100465.00
2019-01-25T13:47:33.164Z,100481.00
2019-01-25T13:50:03.615Z,100481.00
2019-01-25T13:52:35.071Z,100467.00
2019-01-25T13:55:10.585Z,100466.00
2019-01-25T13:57:41.339Z,100469.00
2019-01-25T14:00:23.030Z,100460.00
2019-01-25T14:02:53.566Z,100450.00
2019-01-25T14:05:24.274Z,100430.00
2019-01-25T14:07:54.662Z,100441.00
2019-01-25T14:10:28.622Z,100429.00
2019-01-25T14:12:59.375Z,100423.00
2019-01-25T14:15:30.321Z,100417.00
2019-01-25T14:18:00.630Z,100415.00
2019-01-25T14:20:32.284Z,100404.00
2019-01-25T14:23:06.236Z,100411.00
2019-01-25T14:25:36.641Z,100414.00
2019-01-25T14:28:06.974Z,100406.00
2019-01-25T14:30:44.386Z,100392.00
2019-01-25T14:33:14.737Z,100393.00
2019-01-25T14:35:45.079Z,100397.00
2019-01-25T14:38:17.534Z,100399.00
2019-01-25T14:40:48.214Z,100405.00
2019-01-25T14:43:18.559Z,100392.00
2019-01-25T14:45:48.932Z,100403.00
2019-01-25T14:48:19.362Z,100397.00
2019-01-25T14:50:49.722Z,100396.00
2019-01-25T14:53:20.731Z,100390.00
2019-01-25T14:55:51.354Z,100391.00
2019-01-25T14:58:21.969Z,100386.00
2019-01-25T15:00:52.328Z,100385.00
2019-01-25T15:03:22.721Z,100373.00
2019-01-25T15:05:53.592Z,100353.00
2019-01-25T15:08:23.946Z,100363.00
2019-01-25T15:10:54.703Z,100371.00
2019-01-25T15:13:25.051Z,100361.00
2019-01-25T15:15:59.859Z,100364.00
2019-01-25T15:18:30.215Z,100364.00
2019-01-25T15:21:12.446Z,100361.00
2019-01-25T15:23:42.779Z,100356.00
2019-01-25T15:26:13.181Z,100371.00
2019-01-25T15:28:43.549Z,100369.00
2019-01-25T15:31:13.953Z,100364.00
2019-01-25T15:33:44.318Z,100375.00
2019-01-25T15:36:14.710Z,100369.00
2019-01-25T15:38:45.480Z,100371.00
2019-01-25T15:41:22.829Z,100375.00
2019-01-25T15:43:53.529Z,100382.00
2019-01-25T15:46:23.886Z,100380.00
2019-01-25T15:48:54.622Z,100367.00
2019-01-25T15:51:25.612Z,100364.00
2019-01-25T15:53:55.937Z,100361.00
2019-01-25T15:56:26.637Z,100353.00
2019-01-25T15:58:56.981Z,100351.00
2019-01-25T16:01:27.432Z,100362.00
2019-01-25T16:03:57.760Z,100360.00
2019-01-25T16:06:28.357Z,100347.00
2019-01-25T16:08:58.686Z,100349.00
2019-01-25T16:11:30.249Z,100343.00
2019-01-25T16:14:00.652Z,100336.00
2019-01-25T16:16:34.498Z,100333.00
2019-01-25T16:19:05.112Z,100332.00
2019-01-25T16:21:35.802Z,100322.00
2019-01-25T16:24:07.209Z,100308.00
2019-01-25T16:26:37.514Z,100313.00
2019-01-25T16:29:08.335Z,100309.00
2019-01-25T16:31:40.266Z,100310.00
2019-01-25T16:34:11.024Z,100312.00
2019-01-25T16:36:41.368Z,100313.00
2019-01-25T16:39:12.993Z,100315.00
2019-01-25T16:41:43.701Z,100314.00
2019-01-25T16:44:14.057Z,100303.00
2019-01-25T16:46:44.461Z,100313.00
2019-01-25T16:49:22.415Z,100299.00
2019-01-25T16:51:52.769Z,100291.00
2019-01-25T16:54:23.072Z,100290.00
2019-01-25T16:56:53.776Z,100279.00
2019-01-25T16:59:24.184Z,100274.00
2019-01-25T17:01:54.852Z,100247.00
2019-01-25T17:04:44.507Z,100240.00
2019-01-25T17:07:14.864Z,100235.00
2019-01-25T17:09:45.339Z,100232.00
2019-01-25T17:12:15.904Z,100224.00
2019-01-25T17:14:47.277Z,100221.00
2019-01-25T17:17:17.756Z,100232.00
2019-01-25T17:19:48.071Z,100230.00
2019-01-25T17:22:18.428Z,100228.00
2019-01-25T17:24:48.793Z,100212.00
2019-01-25T17:27:19.530Z,100208.00
2019-01-25T17:29:49.859Z,100200.00
2019-01-25T17:32:20.191Z,100190.00
2019-01-25T17:34:50.556Z,100192.00
2019-01-25T17:37:20.870Z,100173.00
2019-01-25T17:39:53.280Z,100175.00
2019-01-25T17:42:23.605Z,100158.00
2019-01-25T17:44:54.159Z,100175.00
2019-01-25T17:47:24.506Z,100167.00
2019-01-25T17:49:58.040Z,100150.00
2019-01-25T17:52:28.460Z,100146.00
2019-01-25T17:54:58.789Z,100131.00
2019-01-25T17:57:29.118Z,100127.00
2019-01-25T17:59:59.428Z,100126.00
2019-01-25T18:02:29.726Z,100119.00
2019-01-25T18:05:00.255Z,100111.00
2019-01-25T18:07:30.895Z,100112.00
2019-01-25T18:10:01.209Z,100104.00
2019-01-25T18:12:31.648Z,100109.00
2019-01-25T18:15:02.259Z,100088.00
2019-01-25T18:17:32.851Z,100092.00
2019-01-25T18:20:03.247Z,100076.00
2019-01-25T18:22:33.605Z,100077.00
2019-01-25T18:25:04.321Z,100065.00
2019-01-25T18:27:34.673Z,100069.00
2019-01-25T18:30:11.107Z,100060.00
2019-01-25T18:32:41.694Z,100054.00
2019-01-25T18:35:12.281Z,100068.00
2019-01-25T18:37:42.698Z,100057.00
2019-01-25T18:40:14.135Z,100064.00
2019-01-25T18:42:45.169Z,100047.00
2019-01-25T18:45:17.529Z,100041.00
2019-01-25T18:47:47.824Z,100045.00
2019-01-25T18:50:18.689Z,100045.00
2019-01-25T18:52:49.032Z,100045.00
2019-01-25T18:55:21.349Z,100041.00
2019-01-25T18:57:52.061Z,100045.00
2019-01-25T19:00:28.366Z,100037.00
2019-01-25T19:02:58.870Z,100034.00
2019-01-25T19:05:32.356Z,100015.00
2019-01-25T19:08:03.228Z,100001.00
2019-01-25T19:10:33.576Z,100006.00
2019-01-25T19:13:03.891Z,100007.00
2019-01-25T19:15:34.442Z,100001.00
2019-01-25T19:18:04.911Z,100002.00
2019-01-25T19:20:35.658Z,99988.00
2019-01-25T19:23:05.964Z,100008.00
2019-01-25T19:25:36.335Z,100009.00
2019-01-25T19:28:06.743Z,100014.00
2019-01-25T19:30:40.480Z,100008.00
2019-01-25T19:33:11.932Z,100016.00
2019-01-25T19:35:47.861Z,100005.00
2019-01-25T19:38:21.644Z,99998.00
2019-01-25T19:40:51.959Z,99991.00
2019-01-25T19:43:22.718Z,99986.00
2019-01-25T19:45:53.386Z,99979.00
2019-01-25T19:48:42.796Z,99976.00
2019-01-25T19:51:13.251Z,99977.00
2019-01-25T19:53:47.129Z,99960.00
2019-01-25T19:56:17.704Z,99947.00
2019-01-25T19:58:48.052Z,99944.00
2019-01-25T20:01:18.369Z,99948.00
2019-01-25T20:03:49.048Z,99953.00
2019-01-25T20:06:28.968Z,99952.00
2019-01-25T20:08:59.327Z,99950.00
2019-01-25T20:11:29.687Z,99947.00
2019-01-25T20:14:00.288Z,99950.00
2019-01-25T20:16:30.710Z,99949.00
2019-01-25T20:19:01.083Z,99949.00
2019-01-25T20:21:31.403Z,99943.00
2019-01-25T20:24:02.103Z,99943.00
2019-01-25T20:26:32.460Z,99947.00
2019-01-25T20:29:02.811Z,99940.00
2019-01-25T20:31:33.165Z,99943.00
2019-01-25T20:34:03.540Z,99943.00
2019-01-25T20:36:33.930Z,99935.00
2019-01-25T20:39:06.941Z,99936.00
2019-01-25T20:41:39.648Z,99929.00
2019-01-25T20:44:09.961Z,99932.00
2019-01-25T20:46:40.260Z,99924.00
2019-01-25T20:49:12.777Z,99934.00
2019-01-25T20:51:43.100Z,99918.00
2019-01-25T20:54:13.631Z,99936.00
2019-01-25T20:56:44.281Z,99926.00
2019-01-25T20:59:14.614Z,99946.00
2019-01-25T21:01:44.971Z,99945.00
2019-01-25T21:04:15.320Z,99928.00
2019-01-25T21:06:45.661Z,99933.00
2019-01-25T21:09:16.045Z,99937.00
2019-01-25T21:11:46.503Z,99922.00
2019-01-25T21:14:17.145Z,99915.00
2019-01-25T21:16:47.842Z,99919.00
2019-01-25T21:19:27.376Z,99911.00
2019-01-25T21:21:58.001Z,99902.00
2019-01-25T21:24:28.667Z,99897.00
2019-01-25T21:26:59.406Z,99907.00
2019-01-25T21:29:29.795Z,99896.00
2019-01-25T21:32:00.260Z,99897.00
2019-01-25T21:34:30.549Z,99883.00
2019-01-25T21:37:00.890Z,99872.00
2019-01-25T21:39:31.350Z,99882.00
2019-01-25T21:42:01.662Z,99879.00
2019-01-25T21:44:32.191Z,99879.00
2019-01-25T21:47:02.559Z,99860.00
2019-01-25T21:49:33.204Z,99876.00
2019-01-25T21:52:03.901Z,99870.00
2019-01-25T21:54:34.261Z,99872.00
2019-01-25T21:57:04.679Z,99874.00
2019-01-25T21:59:35.182Z,99871.00
2019-01-25T22:02:05.807Z,99871.00
2019-01-25T22:04:36.273Z,99871.00
2019-01-25T22:07:15.665Z,99858.00
2019-01-25T22:09:45.981Z,99866.00
2019-01-25T22:12:16.601Z,99868.00
2019-01-25T22:14:46.946Z,99856.00
2019-01-25T22:17:18.046Z,99859.00
2019-01-25T22:19:48.371Z,99847.00
2019-01-25T22:22:18.688Z,99849.00
2019-01-25T22:24:49.142Z,99847.00
2019-01-25T22:27:19.467Z,99844.00
2019-01-25T22:29:49.776Z,99836.00
2019-01-25T22:32:20.137Z,99833.00
2019-01-25T22:34:50.481Z,99836.00
2019-01-25T22:37:20.765Z,99831.00
2019-01-25T22:39:51.135Z,99829.00
2019-01-25T22:42:21.505Z,99835.00
2019-01-25T22:44:51.893Z,99846.00
2019-01-25T22:47:22.491Z,99770.00
2019-01-25T22:49:53.188Z,99835.00
2019-01-25T22:52:24.052Z,99835.00
2019-01-25T22:54:54.387Z,99837.00
2019-01-25T22:57:24.838Z,99841.00
2019-01-25T22:59:55.180Z,99849.00
2019-01-25T23:02:25.538Z,99829.00
2019-01-25T23:05:56.858Z,99834.00
2019-01-25T23:08:27.234Z,99828.00
2019-01-25T23:10:57.566Z,99820.00
2019-01-25T23:13:27.949Z,99813.00
2019-01-25T23:16:06.170Z,99819.00
2019-01-25T23:18:30.898Z,99827.00
2019-01-25T23:21:01.204Z,99825.00
2019-01-25T23:23:32.258Z,99822.00
2019-01-25T23:26:02.686Z,99820.00
2019-01-25T23:28:33.464Z,99824.00
2019-01-25T23:31:04.294Z,99828.00
2019-01-25T23:33:35.263Z,99830.00
2019-01-25T23:36:08.176Z,99824.00
2019-01-25T23:38:38.526Z,99827.00
2019-01-25T23:41:08.828Z,99832.00
2019-01-25T23:43:39.560Z,99809.00
2019-01-25T23:46:13.826Z,99809.00
2019-01-25T23:48:42.049Z,99802.00
2019-01-25T23:51:12.398Z,99810.00
2019-01-25T23:53:42.743Z,99804.00
2019-01-25T23:56:13.093Z,99795.00
2019-01-25T23:58:43.511Z,99801.00
